This is the latest recevied weather packets stored in our database for station/object GW1480. If no packets are shown the sender has not sent any weather packets the latest 10 day(s).
| Time | Temp. | Humidity | Pressure | Rain* | Wind** | Luminosity | Snow |
|---|---|---|---|---|---|---|---|
| 1777355873 | 13.33° C | 95% | 1016.9 hPa | 8.13 mm | - | - | - |
| 1777349561 | 18.33° C | 69% | 1018.9 hPa | 0 mm | - | - | - |
| 1777348489 | 18.89° C | 67% | 1018.2 hPa | 0 mm | - | - | - |
| 1777347395 | 18.89° C | 61% | 1017.9 hPa | 0 mm | - | - | - |
| 1777346688 | 18.33° C | 57% | 1017.6 hPa | 0 mm | - | - | - |
| 1777343791 | 17.78° C | 70% | 1017.2 hPa | 0 mm | - | - | - |
| 1777340930 | 16.67° C | 79% | 1017.2 hPa | 0 mm | - | - | - |
| 1777340547 | 16.67° C | 81% | 1017.2 hPa | 0 mm | - | - | - |
| 1777340207 | 16.67° C | 81% | 1016.9 hPa | 0 mm | - | - | - |
| 1777337298 | 18.33° C | 79% | 1016.5 hPa | 0 mm | - | - | - |
| 1777335889 | 19.44° C | 78% | 1016.5 hPa | 0 mm | - | - | - |
| 1777332627 | 22.78° C | 67% | 1016.9 hPa | 0 mm | - | - | - |
| 1777330491 | 25° C | 63% | 1016.9 hPa | 0 mm | - | - | - |
| 1777326861 | 27.78° C | 55% | 1017.2 hPa | 0 mm | - | - | - |
| 1777326171 | 27.78° C | 51% | 1017.2 hPa | 0 mm | - | - | - |
| 1777322919 | 29.44° C | 35% | 1017.2 hPa | 0 mm | - | - | - |
| 1777320052 | 28.89° C | 38% | 1017.9 hPa | 0 mm | - | - | - |
| 1777318247 | 28.89° C | 39% | 1018.2 hPa | 0 mm | - | - | - |
| 1777314287 | 27.22° C | 43% | 1019.3 hPa | 0 mm | - | - | - |
| 1777313213 | 26.67° C | 42% | 1019.6 hPa | 0 mm | - | - | - |
| 1777307091 | 23.89° C | 55% | 1021.3 hPa | 0 mm | - | - | - |
| 1777305250 | 23.33° C | 56% | 1021.6 hPa | 0 mm | - | - | - |
| 1777303133 | 21.67° C | 58% | 1021.6 hPa | 0 mm | - | - | - |
| 1777302731 | 21.11° C | 56% | 1021.6 hPa | 0 mm | - | - | - |
| 1777301295 | 20° C | 63% | 1021.6 hPa | 0 mm | - | - | - |
* Rain since midnight (hover to see other rain measurements)
** Current wind speed in m/s (hover to see current wind gust speed)